Steven M. Bryan — WDF2628 — position and weather

sailwx.info

Track history (hours):
 
Tides and Currents Weather Stations Pressure Air Temp Water Temp Dewpoint Dewpoint Depression Visibility Wind Speed Wind Dir Waves Ship Positions

Steven M. Bryan

Owner: Florida Marine Transporters, Inc., Mandeville, LA. More information available from US FCC via Universal Licensing System and Coast Guard Vessel Documentation Center.

Last reported at 2018-Feb-22 05:00 UTC. Time now 2018-Feb-22 05:09 UTC.
Position N 29°35' W 090°38'.

Length 27 m; draft 9.6 m.

Type: Ship. MMSI: 367430050.

Date/timePositionNaut miles runAvg speedWind from/ knotsBaromVisibWave heightAir tempDewpointWater temp
2018-Feb-22 05:00N 29°35' W 090°38'2 4.0
2018-Feb-22 04:30N 29°36' W 090°40'2 3.6
2018-Feb-22 04:00N 29°37' W 090°42'2 3.2
2018-Feb-22 03:30N 29°35' W 090°43'2 3.2
2018-Feb-22 03:00N 29°34' W 090°43'2 4.1
2018-Feb-22 02:30N 29°33' W 090°45'2 4.3
2018-Feb-22 02:00N 29°32' W 090°48'3 5.1
2018-Feb-22 01:30N 29°32' W 090°51'61 3.5
2018-Feb-21 08:17N 29°50' W 091°58'1 4.7
2018-Feb-21 07:58N 29°50' W 091°59'3 5.3
2018-Feb-21 07:29N 29°49' W 092°02'2 4.8
2018-Feb-21 07:00N 29°48' W 092°05'2 4.6
2018-Feb-21 06:30N 29°47' W 092°07'2 4.3
2018-Feb-21 06:00N 29°47' W 092°10'2 3.9
2018-Feb-21 05:30N 29°47' W 092°12'1 1.8
2018-Feb-21 04:59N 29°47' W 092°13'1 2.7
2018-Feb-21 04:30N 29°48' W 092°14'2 3.9
2018-Feb-21 04:00N 29°49' W 092°16'2 4.5
2018-Feb-21 03:30N 29°50' W 092°18'2 4.6
2018-Feb-21 02:59N 29°51' W 092°21'38 4.3
2018-Feb-20 18:10N 29°56' W 093°04'1 4.0
2018-Feb-20 17:59N 29°56' W 093°05'2 4.0
2018-Feb-20 17:30N 29°56' W 093°07'2 4.2
2018-Feb-20 17:00N 29°56' W 093°10'2 4.4
2018-Feb-20 16:30N 29°58' W 093°11'2 4.4
2018-Feb-20 16:00N 29°59' W 093°13'2 3.6
2018-Feb-20 15:30N 30°01' W 093°14'2 3.4
2018-Feb-20 15:00N 30°02' W 093°15'2 3.2
2018-Feb-20 14:30N 30°04' W 093°16'2 3.8
2018-Feb-20 14:00N 30°05' W 093°17'1 2.2
2018-Feb-20 13:30N 30°06' W 093°18'1 1.0
2018-Feb-20 13:00N 30°06' W 093°19'0 0.2
2018-Feb-20 12:30N 30°06' W 093°19'2 3.4
2018-Feb-20 12:00N 30°05' W 093°20'2 3.3
2018-Feb-20 11:30N 30°04' W 093°21'1 2.9
2018-Feb-20 11:00N 30°04' W 093°23'2 4.3
2018-Feb-20 10:30N 30°04' W 093°26'2 4.3
2018-Feb-20 10:00N 30°04' W 093°28'2 4.6
2018-Feb-20 09:30N 30°04' W 093°31'2 4.6
2018-Feb-20 09:00N 30°04' W 093°33'3 4.5
2018-Feb-20 08:26N 30°04' W 093°36'2 4.7
2018-Feb-20 08:00N 30°04' W 093°39'2 4.8
2018-Feb-20 07:30N 30°03' W 093°41'2 4.0
2018-Feb-20 06:59N 30°03' W 093°44'2 3.5
2018-Feb-20 06:30N 30°01' W 093°45'2 4.8
2018-Feb-20 06:00N 29°60' W 093°47'3 5.2
2018-Feb-20 05:30N 29°59' W 093°49'2 3.6
2018-Feb-20 05:00N 29°58' W 093°51'2 4.9
2018-Feb-20 04:30N 29°59' W 093°54'2 5.0
2018-Feb-20 04:00N 29°60' W 093°57'2 3.8
2018-Feb-20 03:30N 30°01' W 093°59'0 0.4
2018-Feb-20 03:00N 30°01' W 093°59'0 0.6
2018-Feb-20 02:30N 30°01' W 093°59'0 0.0
2018-Feb-20 02:00N 30°01' W 093°59'0 0.0
2018-Feb-20 01:30N 30°01' W 093°59'0 0.0
2018-Feb-20 01:00N 30°01' W 093°59'0 0.0
2018-Feb-20 00:30N 30°01' W 093°59'0 0.0
2018-Feb-19 23:58N 30°01' W 093°59'0 0.0
2018-Feb-19 23:30N 30°01' W 093°59'0 0.0
2018-Feb-19 23:00N 30°01' W 093°59'0 0.0
2018-Feb-19 22:30N 30°01' W 093°59'0 0.0
2018-Feb-19 22:00N 30°01' W 093°59'0 0.0
2018-Feb-19 21:30N 30°01' W 093°59'0 0.0
2018-Feb-19 21:00N 30°01' W 093°59'0 0.0
2018-Feb-19 20:30N 30°01' W 093°59'0 0.0
2018-Feb-19 19:59N 30°01' W 093°59'0 0.0
2018-Feb-19 19:30N 30°01' W 093°59'0 0.0
2018-Feb-19 19:00N 30°01' W 093°59'0 0.0
2018-Feb-19 18:30N 30°01' W 093°59'0 0.0
2018-Feb-19 18:00N 30°01' W 093°59'0 0.0
2018-Feb-19 17:30N 30°01' W 093°59'0 0.0
2018-Feb-19 17:00N 30°01' W 093°59'0 0.0
2018-Feb-19 16:30N 30°01' W 093°59'0 0.0
2018-Feb-19 16:00N 30°01' W 093°59'0 0.0
2018-Feb-19 15:30N 30°01' W 093°59'0 0.0
2018-Feb-19 15:00N 30°01' W 093°59'0 0.0
2018-Feb-19 14:30N 30°01' W 093°59'0 0.0
2018-Feb-19 14:00N 30°01' W 093°59'0 0.0
2018-Feb-19 13:30N 30°01' W 093°59'0 0.0
2018-Feb-19 13:00N 30°01' W 093°59'0 0.0
2018-Feb-19 12:30N 30°01' W 093°59'0 0.0
2018-Feb-19 12:00N 30°01' W 093°59'0 0.0
2018-Feb-19 11:30N 30°01' W 093°59'0 0.0
2018-Feb-19 11:00N 30°01' W 093°59'0 0.0
2018-Feb-19 10:30N 30°01' W 093°59'0 0.0
2018-Feb-19 10:00N 30°01' W 093°59'1 1.2
2018-Feb-19 09:30N 30°01' W 093°59'0 0.8
2018-Feb-19 09:00N 30°01' W 093°59'0 0.1
2018-Feb-19 08:30N 30°01' W 093°59'0 0.0
2018-Feb-19 08:00N 30°01' W 093°59'0 0.0
2018-Feb-19 07:30N 30°01' W 093°59'0 0.0
2018-Feb-19 07:00N 30°01' W 093°59'0 0.0
2018-Feb-19 06:30N 30°01' W 093°59'0 0.0
2018-Feb-19 06:00N 30°01' W 093°59'0 0.0
2018-Feb-19 05:30N 30°01' W 093°59'0 0.0
2018-Feb-19 05:00N 30°01' W 093°59'0 0.0
2018-Feb-19 04:30N 30°01' W 093°59'0 0.0
2018-Feb-19 04:00N 30°01' W 093°59'0 0.0
2018-Feb-19 03:30N 30°01' W 093°59'0 0.0
2018-Feb-19 03:00N 30°01' W 093°59'0 0.0
2018-Feb-19 02:30N 30°01' W 093°59'0 0.0
2018-Feb-19 02:00N 30°01' W 093°59'0 0.0
2018-Feb-19 01:30N 30°01' W 093°59'0 0.0
2018-Feb-19 01:00N 30°01' W 093°59'0 0.0
2018-Feb-19 00:30N 30°01' W 093°59'0 0.0
2018-Feb-19 00:00N 30°01' W 093°59'0 0.0
2018-Feb-18 23:30N 30°01' W 093°59'0 0.0
2018-Feb-18 23:00N 30°01' W 093°59'0 0.0
2018-Feb-18 22:30N 30°01' W 093°59'0 0.1
2018-Feb-18 22:00N 30°01' W 093°59'0 0.0
2018-Feb-18 21:30N 30°01' W 093°59'0 0.0
2018-Feb-18 21:00N 30°01' W 093°59'0 0.0
2018-Feb-18 20:30N 30°01' W 093°59'0 0.0
2018-Feb-18 19:59N 30°01' W 093°59'0 0.0
2018-Feb-18 19:30N 30°01' W 093°59'0 0.0
2018-Feb-18 19:00N 30°01' W 093°59'0 0.0
2018-Feb-18 18:30N 30°01' W 093°59'0 0.0
2018-Feb-18 18:00N 30°01' W 093°59'0 0.0
2018-Feb-18 17:30N 30°01' W 093°59'0 0.0
2018-Feb-18 17:00N 30°01' W 093°59'0 0.0
2018-Feb-18 16:30N 30°01' W 093°59'0 0.0
2018-Feb-18 16:00N 30°01' W 093°59'0 0.0
2018-Feb-18 15:30N 30°01' W 093°59'0 0.0
2018-Feb-18 15:00N 30°01' W 093°59'0 0.0
2018-Feb-18 14:30N 30°01' W 093°59'0 0.0
2018-Feb-18 14:00N 30°01' W 093°59'0 0.0
2018-Feb-18 13:30N 30°01' W 093°59'0 0.0
2018-Feb-18 13:00N 30°01' W 093°59'0 0.0
2018-Feb-18 12:30N 30°01' W 093°59'0 0.0
2018-Feb-18 12:00N 30°01' W 093°59'0 0.0
2018-Feb-18 11:30N 30°01' W 093°59'0 0.0
2018-Feb-18 11:00N 30°01' W 093°59'0 0.0
2018-Feb-18 10:30N 30°01' W 093°59'0 0.0
2018-Feb-18 10:00N 30°01' W 093°59'0 0.0
2018-Feb-18 09:30N 30°01' W 093°59'0 0.0
2018-Feb-18 09:00N 30°01' W 093°59'0 0.0
2018-Feb-18 08:30N 30°01' W 093°59'0 0.0
2018-Feb-18 08:00N 30°01' W 093°59'0 0.0
2018-Feb-18 07:30N 30°01' W 093°59'0 0.0
2018-Feb-18 07:00N 30°01' W 093°59'0 0.0
2018-Feb-18 06:30N 30°01' W 093°59'0 0.0
2018-Feb-18 06:00N 30°01' W 093°59'0 0.0
2018-Feb-18 05:29N 30°01' W 093°59'0 0.1
2018-Feb-18 05:00N 30°01' W 093°59'2 3.6
2018-Feb-18 04:30N 30°00' W 093°57'4 8.7
2018-Feb-18 04:00N 29°59' W 093°53'4 7.2
2018-Feb-18 03:30N 29°55' W 093°53'5 9.6
2018-Feb-18 03:00N 29°52' W 093°56'2 3.8
2018-Feb-18 02:30N 29°50' W 093°58'1 1.2
2018-Feb-18 02:00N 29°51' W 093°58'0 0.0
2018-Feb-18 01:30N 29°51' W 093°58'0 0.0
2018-Feb-18 01:00N 29°51' W 093°58'0 0.0
2018-Feb-18 00:30N 29°51' W 093°58'0 0.0
2018-Feb-18 00:00N 29°51' W 093°58'0 0.2
2018-Feb-17 23:30N 29°51' W 093°58'0 0.0
2018-Feb-17 23:00N 29°51' W 093°58'0 0.0
2018-Feb-17 22:30N 29°51' W 093°58'0 0.0
2018-Feb-17 22:00N 29°51' W 093°58'0 0.0
2018-Feb-17 21:30N 29°51' W 093°58'0 0.0
2018-Feb-17 21:00N 29°51' W 093°58'0 0.0
2018-Feb-17 20:30N 29°51' W 093°58'0 0.2
2018-Feb-17 20:00N 29°51' W 093°58'0 0.0
2018-Feb-17 19:30N 29°51' W 093°58'0 0.0
2018-Feb-17 19:00N 29°51' W 093°58'0 0.0
2018-Feb-17 18:30N 29°51' W 093°58'0 0.0
2018-Feb-17 18:00N 29°51' W 093°58'0 0.0
2018-Feb-17 17:30N 29°51' W 093°58'0 0.9
2018-Feb-17 17:00N 29°51' W 093°58'0 0.0
2018-Feb-17 16:30N 29°51' W 093°58'0 0.0
2018-Feb-17 16:00N 29°51' W 093°58'0 0.0
2018-Feb-17 15:30N 29°51' W 093°58'0 0.0
2018-Feb-17 15:00N 29°51' W 093°58'0 0.0
2018-Feb-17 14:30N 29°51' W 093°58'0 0.0
2018-Feb-17 14:00N 29°51' W 093°58'0 0.0
2018-Feb-17 13:30N 29°51' W 093°58'0 0.0
2018-Feb-17 13:00N 29°51' W 093°58'0 0.0
2018-Feb-17 12:30N 29°51' W 093°58'0 0.0
2018-Feb-17 12:00N 29°51' W 093°58'0 0.0
2018-Feb-17 11:30N 29°51' W 093°58'0 0.0
2018-Feb-17 11:00N 29°51' W 093°58'0 0.0
2018-Feb-17 10:30N 29°51' W 093°58'0 0.0
2018-Feb-17 10:00N 29°51' W 093°58'0 0.0
2018-Feb-17 09:30N 29°51' W 093°58'0 0.0
2018-Feb-17 09:00N 29°51' W 093°58'0 0.0
2018-Feb-17 08:30N 29°51' W 093°58'0 0.0
2018-Feb-17 08:00N 29°51' W 093°58'0 0.0
2018-Feb-17 07:30N 29°51' W 093°58'0 0.0
2018-Feb-17 07:00N 29°51' W 093°58'0 0.0
2018-Feb-17 06:30N 29°51' W 093°58'0 0.0
2018-Feb-17 06:00N 29°51' W 093°58'0 0.0
2018-Feb-17 05:29N 29°51' W 093°58'0 0.0
2018-Feb-17 04:59N 29°51' W 093°58'0 0.0
2018-Feb-17 04:30N 29°51' W 093°58'0 0.0
2018-Feb-17 04:00N 29°51' W 093°58'0 0.0
2018-Feb-17 03:30N 29°51' W 093°58'0 0.0
2018-Feb-17 03:00N 29°51' W 093°58'0 0.0
2018-Feb-17 02:30N 29°51' W 093°58'0 0.0
2018-Feb-17 02:00N 29°51' W 093°58'0 0.1
2018-Feb-17 01:30N 29°51' W 093°58'1 1.9
2018-Feb-17 01:00N 29°50' W 093°57'4 7.1
2018-Feb-17 00:30N 29°53' W 093°55'4 7.5
2018-Feb-17 00:00N 29°56' W 093°52'3 5.9
2018-Feb-16 23:30N 29°59' W 093°52'3 5.3
2018-Feb-16 23:00N 29°60' W 093°55'0 0.4
2018-Feb-16 22:30N 29°60' W 093°55'3 5.7
2018-Feb-16 22:00N 30°01' W 093°58'1 1.9
2018-Feb-16 21:31N 30°01' W 093°59'0 0.0
2018-Feb-16 21:00N 30°01' W 093°59'1 1.3
2018-Feb-16 20:30N 30°01' W 093°59'2 3.4
2018-Feb-16 20:01N 30°01' W 093°57'3 5.6
2018-Feb-16 19:30N 29°59' W 093°55'3 5.8
2018-Feb-16 19:00N 29°58' W 093°51'3 5.5
2018-Feb-16 18:30N 29°56' W 093°53'3 5.9
2018-Feb-16 18:00N 29°53' W 093°55'3 5.3
2018-Feb-16 17:30N 29°51' W 093°56'3 5.2
2018-Feb-16 17:00N 29°49' W 093°58'3 5.6
2018-Feb-16 16:30N 29°48' W 094°01'3 5.6
2018-Feb-16 16:00N 29°46' W 094°03'3 5.5
2018-Feb-16 15:30N 29°44' W 094°06'3 5.6
2018-Feb-16 15:00N 29°42' W 094°08'2 4.5
2018-Feb-16 14:30N 29°41' W 094°10'2 4.1
2018-Feb-16 14:00N 29°41' W 094°13'1 2.6
2018-Feb-16 13:30N 29°40' W 094°14'2 3.9
2018-Feb-16 13:00N 29°39' W 094°16'3 5.1
2018-Feb-16 12:30N 29°38' W 094°19'1 2.9
2018-Feb-16 11:59N 29°37' W 094°20'0 0.0
2018-Feb-16 11:30N 29°37' W 094°20'0 0.0
2018-Feb-16 10:59N 29°37' W 094°20'0 0.0
2018-Feb-16 10:30N 29°37' W 094°20'0 0.0
2018-Feb-16 10:00N 29°37' W 094°20'0 0.0
2018-Feb-16 09:29N 29°37' W 094°20'0 0.0
2018-Feb-16 09:00N 29°37' W 094°20'0 0.0
2018-Feb-16 08:29N 29°37' W 094°20'0 0.0
2018-Feb-16 07:56N 29°37' W 094°20'0 0.0
2018-Feb-16 07:29N 29°37' W 094°20'0 0.0
2018-Feb-16 07:00N 29°37' W 094°20'0 0.0
2018-Feb-16 06:28N 29°37' W 094°20'0 0.0
2018-Feb-16 05:59N 29°37' W 094°20'0 0.0
2018-Feb-16 05:24N 29°37' W 094°20'0 0.1
2018-Feb-16 05:00N 29°37' W 094°20'0 0.0
2018-Feb-16 04:30N 29°37' W 094°20'0 0.0
2018-Feb-16 03:59N 29°37' W 094°20'0 0.0
2018-Feb-16 03:30N 29°37' W 094°20'0 0.0
2018-Feb-16 03:00N 29°37' W 094°20'0 0.0
2018-Feb-16 02:30N 29°37' W 094°20'0 0.0
2018-Feb-16 02:00N 29°37' W 094°20'0 0.0
2018-Feb-16 01:30N 29°37' W 094°20'0 0.0
2018-Feb-16 00:59N 29°37' W 094°20'0 0.0
2018-Feb-16 00:29N 29°37' W 094°20'0 0.0
2018-Feb-15 23:59N 29°37' W 094°20'1 1.4
2018-Feb-15 23:30N 29°37' W 094°21'3 5.1
2018-Feb-15 23:00N 29°36' W 094°23'2 2.6
2018-Feb-15 22:23N 29°35' W 094°25'2 4.3
2018-Feb-15 21:57N 29°34' W 094°27'2 4.9
2018-Feb-15 21:30N 29°32' W 094°29'17 2.1
2018-Feb-15 13:46N 29°24' W 094°45'0 0.0
2018-Feb-15 10:06N 29°24' W 094°45'0 0.0
2018-Feb-15 09:56N 29°24' W 094°45'0 0.0
2018-Feb-15 09:11N 29°24' W 094°45'0 0.0
2018-Feb-15 08:54N 29°24' W 094°45'0 0.0
2018-Feb-15 08:26N 29°24' W 094°45'0 0.1
2018-Feb-15 08:00N 29°24' W 094°45'0 0.0
2018-Feb-15 07:16N 29°24' W 094°45'0 0.0
2018-Feb-15 06:57N 29°24' W 094°45'0 0.0
2018-Feb-15 06:25N 29°24' W 094°45'0 0.0
2018-Feb-15 05:59N 29°24' W 094°45'0 0.0
2018-Feb-15 05:28N 29°24' W 094°45'0 0.0
2018-Feb-15 04:59N 29°24' W 094°45'0 0.0
2018-Feb-15 04:30N 29°24' W 094°45'0 0.0
2018-Feb-15 04:00N 29°24' W 094°45'0 0.0
2018-Feb-15 03:30N 29°24' W 094°45'0 0.0
2018-Feb-15 03:00N 29°24' W 094°45'0 0.0
2018-Feb-15 02:30N 29°24' W 094°45'0 0.0
2018-Feb-15 01:56N 29°24' W 094°45'1 0.3
2018-Feb-15 00:10N 29°24' W 094°46'1 4.8
2018-Feb-14 23:57N 29°23' W 094°46'9 4.5
2018-Feb-14 21:58N 29°30' W 094°52'3 7.5
2018-Feb-14 21:30N 29°33' W 094°55'4 7.8
2018-Feb-14 21:00N 29°36' W 094°57'4 8.1
2018-Feb-14 20:30N 29°40' W 094°59'9 1.4
2018-Feb-14 13:52N 29°44' W 095°08'0 0.0
2018-Feb-14 13:28N 29°44' W 095°08'  
Track history (hours):
 
Tides and Currents Weather Stations Pressure Air Temp Water Temp Dewpoint Dewpoint Depression Visibility Wind Speed Wind Dir Waves Ship Positions

Steven M. Bryan

Owner: Florida Marine Transporters, Inc., Mandeville, LA. More information available from US FCC via Universal Licensing System and Coast Guard Vessel Documentation Center.

Last reported at 2018-Feb-22 05:00 UTC. Time now 2018-Feb-22 05:09 UTC.
Position N 29°35' W 090°38'.

Length 27 m; draft 9.6 m.

Type: Ship. MMSI: 367430050.

Date/timePositionNaut miles runAvg speedWind from/ knotsBaromVisibWave heightAir tempDewpointWater temp
2018-Feb-22 05:00N 29°35' W 090°38'2 4.0
2018-Feb-22 04:30N 29°36' W 090°40'2 3.6
2018-Feb-22 04:00N 29°37' W 090°42'2 3.2
2018-Feb-22 03:30N 29°35' W 090°43'2 3.2
2018-Feb-22 03:00N 29°34' W 090°43'2 4.1
2018-Feb-22 02:30N 29°33' W 090°45'2 4.3
2018-Feb-22 02:00N 29°32' W 090°48'3 5.1
2018-Feb-22 01:30N 29°32' W 090°51'61 3.5
2018-Feb-21 08:17N 29°50' W 091°58'1 4.7
2018-Feb-21 07:58N 29°50' W 091°59'3 5.3
2018-Feb-21 07:29N 29°49' W 092°02'2 4.8
2018-Feb-21 07:00N 29°48' W 092°05'2 4.6
2018-Feb-21 06:30N 29°47' W 092°07'2 4.3
2018-Feb-21 06:00N 29°47' W 092°10'2 3.9
2018-Feb-21 05:30N 29°47' W 092°12'1 1.8
2018-Feb-21 04:59N 29°47' W 092°13'1 2.7
2018-Feb-21 04:30N 29°48' W 092°14'2 3.9
2018-Feb-21 04:00N 29°49' W 092°16'2 4.5
2018-Feb-21 03:30N 29°50' W 092°18'2 4.6
2018-Feb-21 02:59N 29°51' W 092°21'38 4.3
2018-Feb-20 18:10N 29°56' W 093°04'1 4.0
2018-Feb-20 17:59N 29°56' W 093°05'2 4.0
2018-Feb-20 17:30N 29°56' W 093°07'2 4.2
2018-Feb-20 17:00N 29°56' W 093°10'2 4.4
2018-Feb-20 16:30N 29°58' W 093°11'2 4.4
2018-Feb-20 16:00N 29°59' W 093°13'2 3.6
2018-Feb-20 15:30N 30°01' W 093°14'2 3.4
2018-Feb-20 15:00N 30°02' W 093°15'2 3.2
2018-Feb-20 14:30N 30°04' W 093°16'2 3.8
2018-Feb-20 14:00N 30°05' W 093°17'1 2.2
2018-Feb-20 13:30N 30°06' W 093°18'1 1.0
2018-Feb-20 13:00N 30°06' W 093°19'0 0.2
2018-Feb-20 12:30N 30°06' W 093°19'2 3.4
2018-Feb-20 12:00N 30°05' W 093°20'2 3.3
2018-Feb-20 11:30N 30°04' W 093°21'1 2.9
2018-Feb-20 11:00N 30°04' W 093°23'2 4.3
2018-Feb-20 10:30N 30°04' W 093°26'2 4.3
2018-Feb-20 10:00N 30°04' W 093°28'2 4.6
2018-Feb-20 09:30N 30°04' W 093°31'2 4.6
2018-Feb-20 09:00N 30°04' W 093°33'3 4.5
2018-Feb-20 08:26N 30°04' W 093°36'2 4.7
2018-Feb-20 08:00N 30°04' W 093°39'2 4.8
2018-Feb-20 07:30N 30°03' W 093°41'2 4.0
2018-Feb-20 06:59N 30°03' W 093°44'2 3.5
2018-Feb-20 06:30N 30°01' W 093°45'2 4.8
2018-Feb-20 06:00N 29°60' W 093°47'3 5.2
2018-Feb-20 05:30N 29°59' W 093°49'2 3.6
2018-Feb-20 05:00N 29°58' W 093°51'2 4.9
2018-Feb-20 04:30N 29°59' W 093°54'2 5.0
2018-Feb-20 04:00N 29°60' W 093°57'2 3.8
2018-Feb-20 03:30N 30°01' W 093°59'0 0.4
2018-Feb-20 03:00N 30°01' W 093°59'0 0.6
2018-Feb-20 02:30N 30°01' W 093°59'0 0.0
2018-Feb-20 02:00N 30°01' W 093°59'0 0.0
2018-Feb-20 01:30N 30°01' W 093°59'0 0.0
2018-Feb-20 01:00N 30°01' W 093°59'0 0.0
2018-Feb-20 00:30N 30°01' W 093°59'0 0.0
2018-Feb-19 23:58N 30°01' W 093°59'0 0.0
2018-Feb-19 23:30N 30°01' W 093°59'0 0.0
2018-Feb-19 23:00N 30°01' W 093°59'0 0.0
2018-Feb-19 22:30N 30°01' W 093°59'0 0.0
2018-Feb-19 22:00N 30°01' W 093°59'0 0.0
2018-Feb-19 21:30N 30°01' W 093°59'0 0.0
2018-Feb-19 21:00N 30°01' W 093°59'0 0.0
2018-Feb-19 20:30N 30°01' W 093°59'0 0.0
2018-Feb-19 19:59N 30°01' W 093°59'0 0.0
2018-Feb-19 19:30N 30°01' W 093°59'0 0.0
2018-Feb-19 19:00N 30°01' W 093°59'0 0.0
2018-Feb-19 18:30N 30°01' W 093°59'0 0.0
2018-Feb-19 18:00N 30°01' W 093°59'0 0.0
2018-Feb-19 17:30N 30°01' W 093°59'0 0.0
2018-Feb-19 17:00N 30°01' W 093°59'0 0.0
2018-Feb-19 16:30N 30°01' W 093°59'0 0.0
2018-Feb-19 16:00N 30°01' W 093°59'0 0.0
2018-Feb-19 15:30N 30°01' W 093°59'0 0.0
2018-Feb-19 15:00N 30°01' W 093°59'0 0.0
2018-Feb-19 14:30N 30°01' W 093°59'0 0.0
2018-Feb-19 14:00N 30°01' W 093°59'0 0.0
2018-Feb-19 13:30N 30°01' W 093°59'0 0.0
2018-Feb-19 13:00N 30°01' W 093°59'0 0.0
2018-Feb-19 12:30N 30°01' W 093°59'0 0.0
2018-Feb-19 12:00N 30°01' W 093°59'0 0.0
2018-Feb-19 11:30N 30°01' W 093°59'0 0.0
2018-Feb-19 11:00N 30°01' W 093°59'0 0.0
2018-Feb-19 10:30N 30°01' W 093°59'0 0.0
2018-Feb-19 10:00N 30°01' W 093°59'1 1.2
2018-Feb-19 09:30N 30°01' W 093°59'0 0.8
2018-Feb-19 09:00N 30°01' W 093°59'0 0.1
2018-Feb-19 08:30N 30°01' W 093°59'0 0.0
2018-Feb-19 08:00N 30°01' W 093°59'0 0.0
2018-Feb-19 07:30N 30°01' W 093°59'0 0.0
2018-Feb-19 07:00N 30°01' W 093°59'0 0.0
2018-Feb-19 06:30N 30°01' W 093°59'0 0.0
2018-Feb-19 06:00N 30°01' W 093°59'0 0.0
2018-Feb-19 05:30N 30°01' W 093°59'0 0.0
2018-Feb-19 05:00N 30°01' W 093°59'0 0.0
2018-Feb-19 04:30N 30°01' W 093°59'0 0.0
2018-Feb-19 04:00N 30°01' W 093°59'0 0.0
2018-Feb-19 03:30N 30°01' W 093°59'0 0.0
2018-Feb-19 03:00N 30°01' W 093°59'0 0.0
2018-Feb-19 02:30N 30°01' W 093°59'0 0.0
2018-Feb-19 02:00N 30°01' W 093°59'0 0.0
2018-Feb-19 01:30N 30°01' W 093°59'0 0.0
2018-Feb-19 01:00N 30°01' W 093°59'0 0.0
2018-Feb-19 00:30N 30°01' W 093°59'0 0.0
2018-Feb-19 00:00N 30°01' W 093°59'0 0.0
2018-Feb-18 23:30N 30°01' W 093°59'0 0.0
2018-Feb-18 23:00N 30°01' W 093°59'0 0.0
2018-Feb-18 22:30N 30°01' W 093°59'0 0.1
2018-Feb-18 22:00N 30°01' W 093°59'0 0.0
2018-Feb-18 21:30N 30°01' W 093°59'0 0.0
2018-Feb-18 21:00N 30°01' W 093°59'0 0.0
2018-Feb-18 20:30N 30°01' W 093°59'0 0.0
2018-Feb-18 19:59N 30°01' W 093°59'0 0.0
2018-Feb-18 19:30N 30°01' W 093°59'0 0.0
2018-Feb-18 19:00N 30°01' W 093°59'0 0.0
2018-Feb-18 18:30N 30°01' W 093°59'0 0.0
2018-Feb-18 18:00N 30°01' W 093°59'0 0.0
2018-Feb-18 17:30N 30°01' W 093°59'0 0.0
2018-Feb-18 17:00N 30°01' W 093°59'0 0.0
2018-Feb-18 16:30N 30°01' W 093°59'0 0.0
2018-Feb-18 16:00N 30°01' W 093°59'0 0.0
2018-Feb-18 15:30N 30°01' W 093°59'0 0.0
2018-Feb-18 15:00N 30°01' W 093°59'0 0.0
2018-Feb-18 14:30N 30°01' W 093°59'0 0.0
2018-Feb-18 14:00N 30°01' W 093°59'0 0.0
2018-Feb-18 13:30N 30°01' W 093°59'0 0.0
2018-Feb-18 13:00N 30°01' W 093°59'0 0.0
2018-Feb-18 12:30N 30°01' W 093°59'0 0.0
2018-Feb-18 12:00N 30°01' W 093°59'0 0.0
2018-Feb-18 11:30N 30°01' W 093°59'0 0.0
2018-Feb-18 11:00N 30°01' W 093°59'0 0.0
2018-Feb-18 10:30N 30°01' W 093°59'0 0.0
2018-Feb-18 10:00N 30°01' W 093°59'0 0.0
2018-Feb-18 09:30N 30°01' W 093°59'0 0.0
2018-Feb-18 09:00N 30°01' W 093°59'0 0.0
2018-Feb-18 08:30N 30°01' W 093°59'0 0.0
2018-Feb-18 08:00N 30°01' W 093°59'0 0.0
2018-Feb-18 07:30N 30°01' W 093°59'0 0.0
2018-Feb-18 07:00N 30°01' W 093°59'0 0.0
2018-Feb-18 06:30N 30°01' W 093°59'0 0.0
2018-Feb-18 06:00N 30°01' W 093°59'0 0.0
2018-Feb-18 05:29N 30°01' W 093°59'0 0.1
2018-Feb-18 05:00N 30°01' W 093°59'2 3.6
2018-Feb-18 04:30N 30°00' W 093°57'4 8.7
2018-Feb-18 04:00N 29°59' W 093°53'4 7.2
2018-Feb-18 03:30N 29°55' W 093°53'5 9.6
2018-Feb-18 03:00N 29°52' W 093°56'2 3.8
2018-Feb-18 02:30N 29°50' W 093°58'1 1.2
2018-Feb-18 02:00N 29°51' W 093°58'0 0.0
2018-Feb-18 01:30N 29°51' W 093°58'0 0.0
2018-Feb-18 01:00N 29°51' W 093°58'0 0.0
2018-Feb-18 00:30N 29°51' W 093°58'0 0.0
2018-Feb-18 00:00N 29°51' W 093°58'0 0.2
2018-Feb-17 23:30N 29°51' W 093°58'0 0.0
2018-Feb-17 23:00N 29°51' W 093°58'0 0.0
2018-Feb-17 22:30N 29°51' W 093°58'0 0.0
2018-Feb-17 22:00N 29°51' W 093°58'0 0.0
2018-Feb-17 21:30N 29°51' W 093°58'0 0.0
2018-Feb-17 21:00N 29°51' W 093°58'0 0.0
2018-Feb-17 20:30N 29°51' W 093°58'0 0.2
2018-Feb-17 20:00N 29°51' W 093°58'0 0.0
2018-Feb-17 19:30N 29°51' W 093°58'0 0.0
2018-Feb-17 19:00N 29°51' W 093°58'0 0.0
2018-Feb-17 18:30N 29°51' W 093°58'0 0.0
2018-Feb-17 18:00N 29°51' W 093°58'0 0.0
2018-Feb-17 17:30N 29°51' W 093°58'0 0.9
2018-Feb-17 17:00N 29°51' W 093°58'0 0.0
2018-Feb-17 16:30N 29°51' W 093°58'0 0.0
2018-Feb-17 16:00N 29°51' W 093°58'0 0.0
2018-Feb-17 15:30N 29°51' W 093°58'0 0.0
2018-Feb-17 15:00N 29°51' W 093°58'0 0.0
2018-Feb-17 14:30N 29°51' W 093°58'0 0.0
2018-Feb-17 14:00N 29°51' W 093°58'0 0.0
2018-Feb-17 13:30N 29°51' W 093°58'0 0.0
2018-Feb-17 13:00N 29°51' W 093°58'0 0.0
2018-Feb-17 12:30N 29°51' W 093°58'0 0.0
2018-Feb-17 12:00N 29°51' W 093°58'0 0.0
2018-Feb-17 11:30N 29°51' W 093°58'0 0.0
2018-Feb-17 11:00N 29°51' W 093°58'0 0.0
2018-Feb-17 10:30N 29°51' W 093°58'0 0.0
2018-Feb-17 10:00N 29°51' W 093°58'0 0.0
2018-Feb-17 09:30N 29°51' W 093°58'0 0.0
2018-Feb-17 09:00N 29°51' W 093°58'0 0.0
2018-Feb-17 08:30N 29°51' W 093°58'0 0.0
2018-Feb-17 08:00N 29°51' W 093°58'0 0.0
2018-Feb-17 07:30N 29°51' W 093°58'0 0.0
2018-Feb-17 07:00N 29°51' W 093°58'0 0.0
2018-Feb-17 06:30N 29°51' W 093°58'0 0.0
2018-Feb-17 06:00N 29°51' W 093°58'0 0.0
2018-Feb-17 05:29N 29°51' W 093°58'0 0.0
2018-Feb-17 04:59N 29°51' W 093°58'0 0.0
2018-Feb-17 04:30N 29°51' W 093°58'0 0.0
2018-Feb-17 04:00N 29°51' W 093°58'0 0.0
2018-Feb-17 03:30N 29°51' W 093°58'0 0.0
2018-Feb-17 03:00N 29°51' W 093°58'0 0.0
2018-Feb-17 02:30N 29°51' W 093°58'0 0.0
2018-Feb-17 02:00N 29°51' W 093°58'0 0.1
2018-Feb-17 01:30N 29°51' W 093°58'1 1.9
2018-Feb-17 01:00N 29°50' W 093°57'4 7.1
2018-Feb-17 00:30N 29°53' W 093°55'4 7.5
2018-Feb-17 00:00N 29°56' W 093°52'3 5.9
2018-Feb-16 23:30N 29°59' W 093°52'3 5.3
2018-Feb-16 23:00N 29°60' W 093°55'0 0.4
2018-Feb-16 22:30N 29°60' W 093°55'3 5.7
2018-Feb-16 22:00N 30°01' W 093°58'1 1.9
2018-Feb-16 21:31N 30°01' W 093°59'0 0.0
2018-Feb-16 21:00N 30°01' W 093°59'1 1.3
2018-Feb-16 20:30N 30°01' W 093°59'2 3.4
2018-Feb-16 20:01N 30°01' W 093°57'3 5.6
2018-Feb-16 19:30N 29°59' W 093°55'3 5.8
2018-Feb-16 19:00N 29°58' W 093°51'3 5.5
2018-Feb-16 18:30N 29°56' W 093°53'3 5.9
2018-Feb-16 18:00N 29°53' W 093°55'3 5.3
2018-Feb-16 17:30N 29°51' W 093°56'3 5.2
2018-Feb-16 17:00N 29°49' W 093°58'3 5.6
2018-Feb-16 16:30N 29°48' W 094°01'3 5.6
2018-Feb-16 16:00N 29°46' W 094°03'3 5.5
2018-Feb-16 15:30N 29°44' W 094°06'3 5.6
2018-Feb-16 15:00N 29°42' W 094°08'2 4.5
2018-Feb-16 14:30N 29°41' W 094°10'2 4.1
2018-Feb-16 14:00N 29°41' W 094°13'1 2.6
2018-Feb-16 13:30N 29°40' W 094°14'2 3.9
2018-Feb-16 13:00N 29°39' W 094°16'3 5.1
2018-Feb-16 12:30N 29°38' W 094°19'1 2.9
2018-Feb-16 11:59N 29°37' W 094°20'0 0.0
2018-Feb-16 11:30N 29°37' W 094°20'0 0.0
2018-Feb-16 10:59N 29°37' W 094°20'0 0.0
2018-Feb-16 10:30N 29°37' W 094°20'0 0.0
2018-Feb-16 10:00N 29°37' W 094°20'0 0.0
2018-Feb-16 09:29N 29°37' W 094°20'0 0.0
2018-Feb-16 09:00N 29°37' W 094°20'0 0.0
2018-Feb-16 08:29N 29°37' W 094°20'0 0.0
2018-Feb-16 07:56N 29°37' W 094°20'0 0.0
2018-Feb-16 07:29N 29°37' W 094°20'0 0.0
2018-Feb-16 07:00N 29°37' W 094°20'0 0.0
2018-Feb-16 06:28N 29°37' W 094°20'0 0.0
2018-Feb-16 05:59N 29°37' W 094°20'0 0.0
2018-Feb-16 05:24N 29°37' W 094°20'0 0.1
2018-Feb-16 05:00N 29°37' W 094°20'0 0.0
2018-Feb-16 04:30N 29°37' W 094°20'0 0.0
2018-Feb-16 03:59N 29°37' W 094°20'0 0.0
2018-Feb-16 03:30N 29°37' W 094°20'0 0.0
2018-Feb-16 03:00N 29°37' W 094°20'0 0.0
2018-Feb-16 02:30N 29°37' W 094°20'0 0.0
2018-Feb-16 02:00N 29°37' W 094°20'0 0.0
2018-Feb-16 01:30N 29°37' W 094°20'0 0.0
2018-Feb-16 00:59N 29°37' W 094°20'0 0.0
2018-Feb-16 00:29N 29°37' W 094°20'0 0.0
2018-Feb-15 23:59N 29°37' W 094°20'1 1.4
2018-Feb-15 23:30N 29°37' W 094°21'3 5.1
2018-Feb-15 23:00N 29°36' W 094°23'2 2.6
2018-Feb-15 22:23N 29°35' W 094°25'2 4.3
2018-Feb-15 21:57N 29°34' W 094°27'2 4.9
2018-Feb-15 21:30N 29°32' W 094°29'17 2.1
2018-Feb-15 13:46N 29°24' W 094°45'0 0.0
2018-Feb-15 10:06N 29°24' W 094°45'0 0.0
2018-Feb-15 09:56N 29°24' W 094°45'0 0.0
2018-Feb-15 09:11N 29°24' W 094°45'0 0.0
2018-Feb-15 08:54N 29°24' W 094°45'0 0.0
2018-Feb-15 08:26N 29°24' W 094°45'0 0.1
2018-Feb-15 08:00N 29°24' W 094°45'0 0.0
2018-Feb-15 07:16N 29°24' W 094°45'0 0.0
2018-Feb-15 06:57N 29°24' W 094°45'0 0.0
2018-Feb-15 06:25N 29°24' W 094°45'0 0.0
2018-Feb-15 05:59N 29°24' W 094°45'0 0.0
2018-Feb-15 05:28N 29°24' W 094°45'0 0.0
2018-Feb-15 04:59N 29°24' W 094°45'0 0.0
2018-Feb-15 04:30N 29°24' W 094°45'0 0.0
2018-Feb-15 04:00N 29°24' W 094°45'0 0.0
2018-Feb-15 03:30N 29°24' W 094°45'0 0.0
2018-Feb-15 03:00N 29°24' W 094°45'0 0.0
2018-Feb-15 02:30N 29°24' W 094°45'0 0.0
2018-Feb-15 01:56N 29°24' W 094°45'1 0.3
2018-Feb-15 00:10N 29°24' W 094°46'1 4.8
2018-Feb-14 23:57N 29°23' W 094°46'9 4.5
2018-Feb-14 21:58N 29°30' W 094°52'3 7.5
2018-Feb-14 21:30N 29°33' W 094°55'4 7.8
2018-Feb-14 21:00N 29°36' W 094°57'4 8.1
2018-Feb-14 20:30N 29°40' W 094°59'9 1.4
2018-Feb-14 13:52N 29°44' W 095°08'0 0.0
2018-Feb-14 13:28N 29°44' W 095°08'  

Dump ship's entire track history